Flight Track Log - Related Links

Times and Time Zones

All times are in EDT time to prevent confusion due to time zone crossing. See the ASQ5740 flight status page for this flight to view local times or setup timezone preferences in your user account.

Time Position Orientation Groundspeed Altitude Reporting Facility
EDT Latitude Longitude Course Direction KTS MPH feet Rate Location/Type
Sat 05:27:15 PM 38.9500 -77.5167 238° Southwest 176 203 1,600  Level Potomac TRACON
Sat 05:28:09 PM 38.9167 -77.5667 229° Southwest 216 249 3,300 1,841 Climbing Potomac TRACON
Sat 05:30:00 PM 38.6070 -77.9545 235° Southwest  Level Estimated
Sat 05:30:11 PM 38.7958 -77.6425 206° Southwest 269 310 7,000  Level Washington Center
Sat 05:31:00 PM 38.4985 -78.0426 212° Southwest  Level FlightAware Approximate
Sat 05:31:12 PM 38.7183 -77.6669 194° South 280 322 8,900  Level Washington Center
Sat 05:32:00 PM 38.4134 -78.1658 238° Southwest  Level Estimated
Sat 05:32:12 PM 38.6344 -77.6914 193° South 292 336 10,800  Level Washington Center
Sat 05:33:13 PM 38.5422 -77.7206 194° South 323 372 12,100 1,250 Climbing Washington Center
Sat 05:34:12 PM 38.4786 -77.7822 217° Southwest 342 394 13,300 1,350 Climbing Washington Center
Sat 05:35:13 PM 38.4158 -77.8997 236° Southwest 342 394 14,800 1,513 Climbing Washington Center
Sat 05:36:11 PM 38.3572 -78.0144 237° Southwest 368 423 16,300 1,412 Climbing Washington Center
Sat 05:37:12 PM 38.2967 -78.1289 236° Southwest 385 443 17,600 1,041 Climbing Washington Center
Sat 05:38:12 PM 38.2378 -78.2433 237° Southwest 396 456 18,400 934 Climbing Washington Center
Sat 05:39:14 PM 38.1747 -78.3600 236° Southwest 396 456 19,500 1,008 Climbing Washington Center
Sat 05:40:11 PM 38.1133 -78.4842 238° Southwest 402 463 20,400 850 Climbing Washington Center
Sat 05:41:14 PM 38.0681 -78.6275 248° West 402 463 21,200 694 Climbing Washington Center
Sat 05:42:12 PM 38.0253 -78.7525 247° West 420 483 21,800 605 Climbing Washington Center
Sat 05:43:13 PM 37.9778 -78.8928 247° West 432 497 22,400 595 Climbing Washington Center
Sat 05:44:13 PM 37.9300 -79.0353 247° West 437 503 23,000 655 Climbing Washington Center
Sat 05:45:12 PM 37.8633 -79.1692 238° Southwest 437 503 23,700 750 Climbing Washington Center
Sat 05:46:13 PM 37.7700 -79.2933 226° Southwest 443 510 24,500 645 Climbing Washington Center
Sat 05:47:13 PM 37.6894 -79.4022 227° Southwest 461 531 25,000 508 Climbing Washington Center
Sat 05:48:11 PM 37.5933 -79.5311 227° Southwest 471 542 25,500 504 Climbing Washington Center
Sat 05:49:12 PM 37.5147 -79.6397 228° Southwest 471 542 26,000 492 Climbing Washington Center
Sat 05:50:13 PM 37.4161 -79.7783 228° Southwest 488 562 26,500 496 Climbing Washington Center
Sat 05:51:13 PM 37.3261 -79.8986 227° Southwest 488 562 27,000 508 Climbing Washington Center
Sat 05:52:11 PM 37.2406 -80.0167 228° Southwest 481 554 27,500 504 Climbing Washington Center
Sat 05:53:12 PM 37.1506 -80.1364 227° Southwest 481 554 28,000 541 Climbing Washington Center
Sat 05:54:13 PM 37.0714 -80.2411 227° Southwest 481 554 28,600 556 Climbing Washington Center
Sat 05:55:43 PM 36.9272 -80.4347 227° Southwest 475 547 29,400 520 Climbing Atlanta Center
Sat 05:56:43 PM 36.8467 -80.5394 226° Southwest 475 547 29,900 500 Climbing Atlanta Center
Sat 05:57:43 PM 36.7583 -80.6550 226° Southwest 470 541 30,400 500 Climbing Atlanta Center
Sat 05:58:43 PM 36.6658 -80.7831 228° Southwest 459 528 30,900 500 Climbing Atlanta Center
Sat 05:59:43 PM 36.5769 -80.8953 225° Southwest 459 528 31,400 500 Climbing Atlanta Center
Sat 06:00:43 PM 36.4922 -81.0147 229° Southwest 459 528 31,900 300 Climbing Atlanta Center
Sat 06:01:43 PM 36.4033 -81.1317 227° Southwest 459 528 32,000 50 Climbing Atlanta Center
Sat 06:02:43 PM 36.3244 -81.2350 227° Southwest 459 528 32,000  Level Atlanta Center
Sat 06:03:43 PM 36.2333 -81.3567 227° Southwest 465 535 32,000  Level Atlanta Center
Sat 06:04:43 PM 36.1442 -81.4753 227° Southwest 471 542 32,000  Level Atlanta Center
Sat 06:05:43 PM 36.0486 -81.5964 226° Southwest 477 549 32,000  Level Atlanta Center
Sat 06:06:43 PM 35.9569 -81.7144 226° Southwest 488 562 32,000  Level Atlanta Center
Sat 06:07:43 PM 35.8653 -81.8350 227° Southwest 483 556 32,000  Level Atlanta Center
Sat 06:08:43 PM 35.7736 -81.9503 226° Southwest 483 556 32,000  Level Atlanta Center
Sat 06:09:43 PM 35.6817 -82.0700 227° Southwest 476 548 32,000  Level Atlanta Center
Sat 06:10:43 PM 35.5875 -82.1872 225° Southwest 482 555 32,000  Level Atlanta Center
Sat 06:11:43 PM 35.4953 -82.3042 226° Southwest 482 555 32,000 -300 Level Atlanta Center
Sat 06:12:43 PM 35.3989 -82.4208 225° Southwest 482 555 31,400 -850 Descending Atlanta Center
Sat 06:13:43 PM 35.2897 -82.5400 222° Southwest 482 555 30,300 -1,100 Descending Atlanta Center
Sat 06:14:43 PM 35.2031 -82.6306 221° Southwest 482 555 29,200 -1,050 Descending Atlanta Center
Sat 06:15:43 PM 35.1064 -82.7389 223° Southwest 477 549 28,200 -1,350 Descending Atlanta Center
Sat 06:16:43 PM 35.0114 -82.8444 222° Southwest 477 549 26,500 -2,150 Descending Atlanta Center
Sat 06:17:43 PM 34.9081 -82.9472 219° Southwest 459 528 23,900 -2,250 Descending Atlanta Center
Sat 06:18:43 PM 34.8233 -83.0444 223° Southwest 428 493 22,000 -950 Descending Atlanta Center
Sat 06:19:43 PM 34.7383 -83.1364 222° Southwest 414 476 22,000  Level Atlanta Center
Sat 06:20:43 PM 34.6536 -83.2283 222° Southwest 414 476 22,000  Level Atlanta Center
Sat 06:21:43 PM 34.5747 -83.3122 221° Southwest 414 476 22,000 -650 Level Atlanta Center
Sat 06:22:43 PM 34.4856 -83.4139 223° Southwest 426 490 20,700 -1,450 Descending Atlanta Center
Sat 06:23:43 PM 34.3942 -83.5103 221° Southwest 438 504 19,100 -1,500 Descending Atlanta Center
Sat 06:24:43 PM 34.3069 -83.6064 222° Southwest 438 504 17,700 -1,500 Descending Atlanta Center
Sat 06:25:43 PM 34.2194 -83.7022 222° Southwest 433 498 16,100 -1,550 Descending Atlanta Center
Sat 06:26:43 PM 34.1364 -83.7928 222° Southwest 420 483 14,600 -1,150 Descending Atlanta Center
Sat 06:27:43 PM 34.0425 -83.8883 220° Southwest 412 474 13,800 -1,000 Descending Atlanta Center
Sat 06:28:43 PM 33.9633 -83.9711 221° Southwest 400 460 12,600 -871 Descending Atlanta Center
Sat 06:29:47 PM 33.8667 -84.0500 214° Southwest 382 440 12,000 -290 Descending Atlanta TRACON
Sat 06:30:47 PM 33.8167 -84.1500 239° Southwest 377 434 12,000  Level Atlanta TRACON
Sat 06:31:47 PM 33.7833 -84.2500 248° West 298 343 12,000 -350 Level Atlanta TRACON
Sat 06:32:47 PM 33.7667 -84.3333 256° West 261 300 11,300 -1,000 Descending Atlanta TRACON
Sat 06:33:47 PM 33.7333 -84.4167 244° Southwest 255 293 10,000 -1,350 Descending Atlanta TRACON
Sat 06:34:47 PM 33.7333 -84.5000 270° West 237 273 8,600 -1,667 Descending Atlanta TRACON
Sat 06:35:53 PM 33.7333 -84.5833 270° West 241 277 6,500 -2,000 Descending Atlanta TRACON
Sat 06:36:53 PM 33.6833 -84.6333 220° Southwest 248 285 4,400 -1,842 Descending Atlanta TRACON
Sat 06:37:47 PM 33.6667 -84.5667 107° East 212 244 3,000 -1,105 Descending Atlanta TRACON
Sat 06:38:47 PM 33.6500 -84.5167 112° Southeast 171 197 2,300 -700 Descending Atlanta TRACON
Sat 06:39:47 PM 33.6500 -84.4667 90° East 136 157 1,600 -700 Descending Atlanta TRACON

Login

Don't have an account? Register now (free) for customized features, flight alerts, and more!